Time;durP1;ratioP1;P1;durP2;ratioP2;P2;SDS_P1;SDS_P2;PMS_P1;PMS_P2;Temp;Humidity;BMP_temperature;BMP_pressure;BME280_temperature;BME280_humidity;BME280_pressure;Samples;Min_cycle;Max_cycle;Signal;HPM_P1;HPM_P2
2021/09/22 05:50:41;;;;;;;3.80;2.50;;;;;;;;;;1054908;27;99868;-52
2021/09/22 05:51:40;;;;;;;4.35;3.10;;;;;;;;;;1050664;27;100786;-59
2021/09/22 05:52:30;;;;;;;6.68;3.20;;;;;;;;;;1050200;27;99911;-59
2021/09/22 05:53:20;;;;;;;5.15;2.78;;;;;;;;;;1047702;27;100778;-59
2021/09/22 05:54:10;;;;;;;5.38;3.20;;;;;;;;;;1052943;27;100117;-59
2021/09/22 05:54:59;;;;;;;3.00;2.35;;;;;;;;;;1052495;27;100877;-59
2021/09/22 05:55:49;;;;;;;5.20;2.75;;;;;;;;;;1053838;27;99259;-59
2021/09/22 05:56:39;;;;;;;4.95;2.67;;;;;;;;;;1048191;27;99932;-59
2021/09/22 05:57:29;;;;;;;5.57;2.72;;;;;;;;;;1049046;27;100056;-53
2021/09/22 05:58:20;;;;;;;8.18;2.67;;;;;;;;;;1047328;27;102891;-59
2021/09/22 05:59:10;;;;;;;5.93;2.78;;;;;;;;;;1048796;27;100634;-59
2021/09/22 06:00:00;;;;;;;8.05;2.90;;;;;;;;;;1047953;27;100507;-59
2021/09/22 06:01:06;;;;;;;2.83;2.40;;;;;;;;;;1049334;27;99877;-59
2021/09/22 06:01:57;;;;;;;4.50;2.58;;;;;;;;;;1049697;27;100530;-59
2021/09/22 06:02:46;;;;;;;10.65;2.90;;;;;;;;;;1050992;27;100108;-59
2021/09/22 06:03:35;;;;;;;6.72;2.65;;;;;;;;;;1052360;27;100465;-59
2021/09/22 06:04:24;;;;;;;5.68;2.70;;;;;;;;;;1050977;27;100129;-59
2021/09/22 06:05:14;;;;;;;5.65;2.40;;;;;;;;;;1047864;27;100440;-59
2021/09/22 06:06:04;;;;;;;4.40;2.70;;;;;;;;;;1049195;27;100353;-59
2021/09/22 06:07:01;;;;;;;4.32;2.78;;;;;;;;;;1049818;27;100652;-59
2021/09/22 06:07:55;;;;;;;6.40;2.95;;;;;;;;;;1031976;28;100162;-59
2021/09/22 06:09:02;;;;;;;4.47;2.70;;;;;;;;;;1014070;28;101580;-59
2021/09/22 06:09:45;;;;;;;6.75;2.85;;;;;;;;;;1016154;28;100285;-59
2021/09/22 06:10:37;;;;;;;6.18;2.90;;;;;;;;;;1010537;28;100893;-59
2021/09/22 06:11:22;;;;;;;6.63;2.67;;;;;;;;;;1011999;28;100127;-58
2021/09/22 06:12:00;;;;;;;8.27;3.05;;;;;;;;;;1014915;28;100643;-59
2021/09/22 06:12:31;;;;;;;8.02;2.80;;;;;;;;;;1014446;28;100302;-59
2021/09/22 06:13:05;;;;;;;5.75;2.78;;;;;;;;;;1015778;28;101897;-59
2021/09/22 06:13:36;;;;;;;6.85;3.10;;;;;;;;;;1015511;28;99976;-59
2021/09/22 06:14:07;;;;;;;3.97;2.67;;;;;;;;;;1014636;28;101549;-59
2021/09/22 06:14:38;;;;;;;6.35;3.03;;;;;;;;;;1015721;28;99949;-58
2021/09/22 06:15:10;;;;;;;7.35;2.65;;;;;;;;;;1014130;28;100812;-59
2021/09/22 06:15:41;;;;;;;8.70;2.72;;;;;;;;;;1015862;28;100105;-59
2021/09/22 06:16:12;;;;;;;5.55;2.53;;;;;;;;;;1014693;28;100497;-59
2021/09/22 06:16:43;;;;;;;8.30;2.63;;;;;;;;;;1015377;28;100163;-59
2021/09/22 06:17:25;;;;;;;7.35;2.90;;;;;;;;;;1011985;28;100693;-59
2021/09/22 06:17:57;;;;;;;3.95;2.28;;;;;;;;;;1015061;28;100124;-59
2021/09/22 06:18:28;;;;;;;4.78;2.58;;;;;;;;;;1013756;28;100454;-59
2021/09/22 06:19:01;;;;;;;6.05;2.50;;;;;;;;;;1015984;28;100130;-59
2021/09/22 06:19:32;;;;;;;6.05;2.80;;;;;;;;;;1014113;28;102908;-60
2021/09/22 06:20:04;;;;;;;6.18;2.45;;;;;;;;;;1015362;28;100123;-59
2021/09/22 06:20:35;;;;;;;4.65;2.60;;;;;;;;;;1014242;28;101839;-59
2021/09/22 06:21:06;;;;;;;4.95;2.42;;;;;;;;;;1016195;28;100036;-59
2021/09/22 06:21:38;;;;;;;4.55;2.67;;;;;;;;;;1018660;28;100890;-59
2021/09/22 06:22:10;;;;;;;6.35;2.35;;;;;;;;;;1015491;28;99883;-59
2021/09/22 06:22:43;;;;;;;9.68;2.63;;;;;;;;;;1014369;28;100765;-59
2021/09/22 06:23:15;;;;;;;6.90;2.63;;;;;;;;;;1015707;28;100057;-59
2021/09/22 06:23:52;;;;;;;6.78;2.58;;;;;;;;;;1010883;28;102607;-59
2021/09/22 06:24:23;;;;;;;10.98;2.65;;;;;;;;;;1015692;28;100094;-59
2021/09/22 06:25:16;;;;;;;12.68;2.85;;;;;;;;;;1013965;28;100506;-59
2021/09/22 06:25:47;;;;;;;6.47;2.72;;;;;;;;;;1019637;28;100097;-59
2021/09/22 06:26:20;;;;;;;6.43;2.55;;;;;;;;;;1018437;28;100446;-60
2021/09/22 06:26:52;;;;;;;6.28;2.60;;;;;;;;;;1019590;28;100064;-59
2021/09/22 06:27:23;;;;;;;10.55;2.80;;;;;;;;;;1018322;28;100467;-60
2021/09/22 06:27:55;;;;;;;5.85;2.50;;;;;;;;;;1019874;28;100209;-59
2021/09/22 06:28:26;;;;;;;7.40;2.75;;;;;;;;;;1018351;28;100672;-60
2021/09/22 06:28:58;;;;;;;5.85;2.60;;;;;;;;;;1019517;28;100081;-59
2021/09/22 06:29:29;;;;;;;4.63;2.22;;;;;;;;;;1018583;28;100528;-59
2021/09/22 06:30:00;;;;;;;6.47;2.40;;;;;;;;;;1019480;28;100108;-59
2021/09/22 06:30:32;;;;;;;6.05;2.95;;;;;;;;;;1018439;28;100429;-59
2021/09/22 06:31:03;;;;;;;4.22;2.80;;;;;;;;;;1019235;28;100173;-58
2021/09/22 06:31:36;;;;;;;4.32;2.67;;;;;;;;;;1014585;28;100705;-59
2021/09/22 06:32:23;;;;;;;6.43;3.15;;;;;;;;;;1012142;28;100254;-58
2021/09/22 06:33:12;;;;;;;6.78;2.50;;;;;;;;;;1011202;28;100469;-59
2021/09/22 06:33:51;;;;;;;5.93;2.80;;;;;;;;;;1012292;28;100117;-58
2021/09/22 06:34:29;;;;;;;8.15;2.60;;;;;;;;;;1018682;28;100446;-59
2021/09/22 06:35:00;;;;;;;9.18;2.85;;;;;;;;;;1019539;28;99902;-59
2021/09/22 06:35:47;;;;;;;6.07;2.67;;;;;;;;;;1014688;28;101560;-59
2021/09/22 06:36:22;;;;;;;4.97;2.65;;;;;;;;;;1016154;28;100202;-59
2021/09/22 06:36:53;;;;;;;5.68;2.70;;;;;;;;;;1013837;28;101392;-58
2021/09/22 06:37:24;;;;;;;5.07;2.78;;;;;;;;;;1019194;28;100133;-60
2021/09/22 06:38:24;;;;;;;5.82;3.10;;;;;;;;;;1013967;28;101676;-59
2021/09/22 06:39:00;;;;;;;7.57;2.78;;;;;;;;;;1015040;28;100076;-59
2021/09/22 06:39:31;;;;;;;5.07;2.72;;;;;;;;;;1013810;28;100639;-59
2021/09/22 06:40:06;;;;;;;4.40;2.60;;;;;;;;;;1018197;28;100180;-60
2021/09/22 06:40:38;;;;;;;6.78;2.38;;;;;;;;;;1017286;28;102560;-59
2021/09/22 06:41:09;;;;;;;7.32;2.60;;;;;;;;;;1015864;28;100163;-59
2021/09/22 06:41:43;;;;;;;4.63;2.85;;;;;;;;;;1014301;28;100446;-60
2021/09/22 06:42:19;;;;;;;3.65;2.30;;;;;;;;;;1015661;28;99939;-59
2021/09/22 06:42:51;;;;;;;6.68;2.80;;;;;;;;;;1016011;28;100997;-61
2021/09/22 06:43:22;;;;;;;8.80;2.33;;;;;;;;;;1018520;28;100196;-59
2021/09/22 06:43:54;;;;;;;4.72;2.85;;;;;;;;;;1017515;28;100693;-59
2021/09/22 06:44:25;;;;;;;7.25;3.10;;;;;;;;;;1031811;28;100119;-59
2021/09/22 06:44:56;;;;;;;5.93;2.83;;;;;;;;;;1030598;28;100524;-59
2021/09/22 06:45:27;;;;;;;4.35;2.75;;;;;;;;;;1031598;28;100141;-59
2021/09/22 06:45:58;;;;;;;6.20;2.78;;;;;;;;;;1039638;27;100462;-60
2021/09/22 06:46:31;;;;;;;5.82;2.97;;;;;;;;;;1049056;27;100047;-59
2021/09/22 06:47:02;;;;;;;7.32;3.08;;;;;;;;;;1047564;27;100429;-60
2021/09/22 06:47:39;;;;;;;8.85;2.97;;;;;;;;;;1048929;27;100137;-59
2021/09/22 06:48:10;;;;;;;4.32;2.70;;;;;;;;;;1051425;27;100554;-59
2021/09/22 06:48:41;;;;;;;6.47;3.13;;;;;;;;;;1052960;27;100082;-59
2021/09/22 06:49:12;;;;;;;6.85;2.78;;;;;;;;;;1051455;27;100400;-60
2021/09/22 06:49:43;;;;;;;3.80;2.60;;;;;;;;;;1052529;27;100060;-60
2021/09/22 06:50:14;;;;;;;5.15;2.40;;;;;;;;;;1047309;27;100812;-59
2021/09/22 06:50:46;;;;;;;4.72;2.75;;;;;;;;;;1049291;27;99212;-59
2021/09/22 06:51:18;;;;;;;5.22;2.88;;;;;;;;;;1047310;27;100616;-58
2021/09/22 06:51:49;;;;;;;8.38;3.03;;;;;;;;;;1048583;27;99830;-59
2021/09/22 06:52:22;;;;;;;4.50;3.03;;;;;;;;;;1047548;27;100627;-60
2021/09/22 06:52:53;;;;;;;6.22;3.10;;;;;;;;;;1048960;27;99967;-59
2021/09/22 06:53:24;;;;;;;6.25;2.95;;;;;;;;;;1047644;27;101468;-59
2021/09/22 06:53:55;;;;;;;4.95;2.72;;;;;;;;;;1048800;27;99894;-59
2021/09/22 06:54:27;;;;;;;6.78;2.90;;;;;;;;;;1047537;27;100344;-59
2021/09/22 06:54:59;;;;;;;8.30;2.80;;;;;;;;;;1048905;27;99779;-59
2021/09/22 06:55:31;;;;;;;4.93;2.88;;;;;;;;;;1047613;27;100493;-59
2021/09/22 06:56:03;;;;;;;5.90;3.10;;;;;;;;;;1048398;27;99247;-59
2021/09/22 06:56:34;;;;;;;5.57;3.00;;;;;;;;;;1047735;27;100530;-59
2021/09/22 06:57:06;;;;;;;5.18;3.10;;;;;;;;;;1048720;27;99947;-59
2021/09/22 06:57:38;;;;;;;6.47;2.95;;;;;;;;;;1047117;27;100800;-59
2021/09/22 06:58:09;;;;;;;8.25;3.05;;;;;;;;;;1048363;27;100359;-59
2021/09/22 06:58:40;;;;;;;8.18;2.85;;;;;;;;;;1047422;27;100083;-59
2021/09/22 06:59:12;;;;;;;4.28;2.67;;;;;;;;;;1049026;27;100044;-59
2021/09/22 06:59:43;;;;;;;9.30;3.13;;;;;;;;;;1047524;27;101267;-59
2021/09/22 07:00:15;;;;;;;4.05;3.00;;;;;;;;;;1048786;27;100152;-59
2021/09/22 07:00:46;;;;;;;5.82;3.10;;;;;;;;;;1047602;27;101391;-59
2021/09/22 07:01:18;;;;;;;7.22;2.85;;;;;;;;;;1048916;27;99878;-59
2021/09/22 07:01:49;;;;;;;7.18;3.10;;;;;;;;;;1046532;27;100415;-59
2021/09/22 07:02:20;;;;;;;4.05;3.13;;;;;;;;;;1045474;27;100276;-59
2021/09/22 07:02:51;;;;;;;6.93;2.85;;;;;;;;;;1044976;27;100439;-59
2021/09/22 07:03:22;;;;;;;6.18;2.80;;;;;;;;;;1050086;27;100118;-59
2021/09/22 07:03:53;;;;;;;5.40;3.10;;;;;;;;;;1048902;27;100438;-59
2021/09/22 07:04:24;;;;;;;5.32;2.95;;;;;;;;;;1050071;27;100213;-59
2021/09/22 07:04:55;;;;;;;3.70;3.00;;;;;;;;;;1048663;27;100475;-59
2021/09/22 07:05:26;;;;;;;4.97;2.95;;;;;;;;;;1045826;27;100065;-59
2021/09/22 07:05:58;;;;;;;4.72;3.47;;;;;;;;;;1044878;27;100424;-59
2021/09/22 07:06:29;;;;;;;4.82;3.10;;;;;;;;;;1045503;27;100081;-59
2021/09/22 07:07:00;;;;;;;4.20;2.75;;;;;;;;;;1044638;27;101751;-59
2021/09/22 07:07:31;;;;;;;4.15;2.70;;;;;;;;;;1045567;27;100084;-59
2021/09/22 07:08:03;;;;;;;5.55;2.83;;;;;;;;;;1044359;27;101886;-59
2021/09/22 07:08:34;;;;;;;6.32;3.13;;;;;;;;;;1045853;27;100334;-60
2021/09/22 07:09:05;;;;;;;5.53;2.83;;;;;;;;;;1040694;27;100483;-59
2021/09/22 07:09:37;;;;;;;4.55;2.97;;;;;;;;;;1041687;28;100079;-59
2021/09/22 07:10:08;;;;;;;7.05;2.97;;;;;;;;;;1040392;28;100448;-59
2021/09/22 07:10:39;;;;;;;7.10;3.20;;;;;;;;;;1041929;27;100241;-59
2021/09/22 07:11:11;;;;;;;5.50;2.78;;;;;;;;;;1044505;27;100443;-59
2021/09/22 07:11:43;;;;;;;3.95;2.80;;;;;;;;;;1046015;27;99994;-59
2021/09/22 07:12:14;;;;;;;6.18;3.17;;;;;;;;;;1044839;27;100332;-59
2021/09/22 07:12:45;;;;;;;6.10;2.90;;;;;;;;;;1049738;27;100246;-59
2021/09/22 07:13:16;;;;;;;6.35;3.00;;;;;;;;;;1048712;27;100387;-59
2021/09/22 07:13:47;;;;;;;7.28;3.17;;;;;;;;;;1049918;27;99875;-59
2021/09/22 07:14:19;;;;;;;6.68;3.25;;;;;;;;;;1044347;27;100847;-59
2021/09/22 07:14:50;;;;;;;6.78;3.33;;;;;;;;;;1045548;27;100182;-59
2021/09/22 07:15:21;;;;;;;8.27;2.88;;;;;;;;;;1044451;27;100408;-58
2021/09/22 07:15:52;;;;;;;7.38;3.10;;;;;;;;;;1045661;27;100150;-59
2021/09/22 07:16:23;;;;;;;5.80;3.00;;;;;;;;;;1044755;27;100404;-59
2021/09/22 07:16:54;;;;;;;6.30;3.38;;;;;;;;;;1046018;27;100160;-59
2021/09/22 07:17:26;;;;;;;7.05;3.15;;;;;;;;;;1044793;27;100445;-60
2021/09/22 07:17:57;;;;;;;5.28;3.17;;;;;;;;;;1046232;27;99727;-60
2021/09/22 07:18:28;;;;;;;6.65;2.95;;;;;;;;;;1044611;27;100795;-59
2021/09/22 07:18:59;;;;;;;3.55;3.08;;;;;;;;;;1046194;27;100143;-59
2021/09/22 07:19:30;;;;;;;7.10;3.20;;;;;;;;;;1044731;27;100771;-59
2021/09/22 07:20:06;;;;;;;4.38;3.08;;;;;;;;;;1045847;27;100069;-59
2021/09/22 07:20:38;;;;;;;5.05;3.00;;;;;;;;;;1044569;27;100849;-59
2021/09/22 07:21:10;;;;;;;5.70;3.45;;;;;;;;;;1045944;27;99965;-59
2021/09/22 07:21:41;;;;;;;9.43;3.30;;;;;;;;;;1044571;27;100513;-60
2021/09/22 07:22:12;;;;;;;4.10;3.10;;;;;;;;;;1046236;27;100017;-60
2021/09/22 07:22:44;;;;;;;5.40;3.00;;;;;;;;;;1044555;27;100430;-60
2021/09/22 07:23:15;;;;;;;6.78;2.97;;;;;;;;;;1045785;27;99988;-60
2021/09/22 07:23:46;;;;;;;6.35;2.92;;;;;;;;;;1044658;27;100774;-60
2021/09/22 07:24:18;;;;;;;6.07;3.15;;;;;;;;;;1045995;27;99825;-60
2021/09/22 07:24:49;;;;;;;5.05;3.17;;;;;;;;;;1044908;27;100565;-60
2021/09/22 07:25:20;;;;;;;4.47;3.20;;;;;;;;;;1045380;27;99890;-60
2021/09/22 07:25:51;;;;;;;5.50;3.55;;;;;;;;;;1044485;27;100599;-60
2021/09/22 07:26:22;;;;;;;3.97;3.13;;;;;;;;;;1045771;27;99914;-60
2021/09/22 07:26:53;;;;;;;8.90;3.50;;;;;;;;;;1044692;27;100512;-60
2021/09/22 07:27:25;;;;;;;3.83;2.90;;;;;;;;;;1045817;27;99842;-60
2021/09/22 07:27:56;;;;;;;4.82;3.35;;;;;;;;;;1044849;27;100436;-60
2021/09/22 07:28:27;;;;;;;4.00;3.15;;;;;;;;;;1045987;27;99831;-60
2021/09/22 07:28:59;;;;;;;9.23;3.42;;;;;;;;;;1044895;27;100617;-60
2021/09/22 07:29:30;;;;;;;6.28;3.40;;;;;;;;;;1045875;27;99951;-60
2021/09/22 07:30:01;;;;;;;7.82;3.65;;;;;;;;;;1044860;27;100489;-60
2021/09/22 07:30:32;;;;;;;6.55;3.15;;;;;;;;;;1045963;27;99260;-60
2021/09/22 07:31:04;;;;;;;8.20;3.40;;;;;;;;;;1043902;27;101712;-60
2021/09/22 07:31:36;;;;;;;6.43;3.60;;;;;;;;;;1045675;27;99909;-60
2021/09/22 07:32:07;;;;;;;4.75;3.35;;;;;;;;;;1040052;28;100527;-60
2021/09/22 07:32:43;;;;;;;5.43;3.38;;;;;;;;;;1041204;28;100146;-60
2021/09/22 07:33:14;;;;;;;4.50;3.20;;;;;;;;;;1041378;27;100780;-59
2021/09/22 07:33:45;;;;;;;7.25;3.63;;;;;;;;;;1045506;27;99334;-60
2021/09/22 07:34:17;;;;;;;4.93;3.38;;;;;;;;;;1044642;27;100410;-60
2021/09/22 07:34:49;;;;;;;4.80;3.25;;;;;;;;;;1041440;28;99991;-60
2021/09/22 07:35:20;;;;;;;5.93;3.30;;;;;;;;;;1040171;28;101324;-60
2021/09/22 07:35:52;;;;;;;5.63;3.05;;;;;;;;;;1041795;27;100444;-60
2021/09/22 07:36:23;;;;;;;5.30;3.13;;;;;;;;;;1044714;27;100753;-59
2021/09/22 07:36:54;;;;;;;5.82;3.53;;;;;;;;;;1046132;27;100049;-59
2021/09/22 07:37:25;;;;;;;6.72;3.85;;;;;;;;;;1044813;27;100731;-59
2021/09/22 07:37:56;;;;;;;4.88;3.60;;;;;;;;;;1045793;27;99862;-59
2021/09/22 07:38:27;;;;;;;4.88;3.47;;;;;;;;;;1044746;27;100782;-59
2021/09/22 07:38:59;;;;;;;6.47;3.40;;;;;;;;;;1046106;27;99834;-59
2021/09/22 07:39:30;;;;;;;8.05;3.72;;;;;;;;;;1044835;27;100266;-59
2021/09/22 07:40:03;;;;;;;4.70;3.70;;;;;;;;;;1045893;27;100059;-59
2021/09/22 07:40:34;;;;;;;5.95;3.80;;;;;;;;;;1044756;27;100885;-59
2021/09/22 07:41:06;;;;;;;5.90;3.88;;;;;;;;;;1045643;27;100245;-59
2021/09/22 07:41:37;;;;;;;8.43;4.53;;;;;;;;;;1044622;27;100550;-60
2021/09/22 07:42:12;;;;;;;7.13;3.78;;;;;;;;;;1049726;27;100162;-59
2021/09/22 07:42:44;;;;;;;6.72;4.18;;;;;;;;;;1049786;27;100559;-60
2021/09/22 07:43:16;;;;;;;6.10;3.75;;;;;;;;;;1054266;27;100000;-60
2021/09/22 07:43:47;;;;;;;6.20;3.95;;;;;;;;;;1050483;27;100422;-60
2021/09/22 07:44:18;;;;;;;9.55;4.85;;;;;;;;;;1046176;27;99887;-60
2021/09/22 07:44:53;;;;;;;5.50;4.00;;;;;;;;;;1044414;27;100421;-60
2021/09/22 07:45:25;;;;;;;9.75;4.30;;;;;;;;;;1045923;27;100028;-60
2021/09/22 07:45:57;;;;;;;9.20;4.53;;;;;;;;;;1043905;27;101328;-60
2021/09/22 07:46:28;;;;;;;7.45;4.55;;;;;;;;;;1045895;27;99873;-60
2021/09/22 07:46:59;;;;;;;10.95;5.35;;;;;;;;;;1044562;27;100342;-60
2021/09/22 07:47:30;;;;;;;7.28;4.85;;;;;;;;;;1049711;27;99286;-60
2021/09/22 07:48:02;;;;;;;8.13;4.80;;;;;;;;;;1048426;27;100460;-60
2021/09/22 07:48:35;;;;;;;7.72;4.45;;;;;;;;;;1049926;27;100084;-60
2021/09/22 07:49:06;;;;;;;9.82;4.65;;;;;;;;;;1047641;27;100574;-60
2021/09/22 07:49:37;;;;;;;8.75;4.57;;;;;;;;;;1046219;27;99750;-60
2021/09/22 07:50:09;;;;;;;10.95;5.07;;;;;;;;;;1044109;27;100797;-59
2021/09/22 07:50:40;;;;;;;9.45;5.28;;;;;;;;;;1046113;27;99875;-60
2021/09/22 07:51:11;;;;;;;8.48;4.85;;;;;;;;;;1039944;28;100821;-60
2021/09/22 07:51:43;;;;;;;8.20;5.07;;;;;;;;;;1041746;28;100082;-59
2021/09/22 07:52:14;;;;;;;14.77;4.97;;;;;;;;;;1039864;28;100749;-60
2021/09/22 07:52:46;;;;;;;8.43;5.35;;;;;;;;;;1041913;27;100101;-60
2021/09/22 07:53:17;;;;;;;7.28;5.00;;;;;;;;;;1044610;27;100370;-60
2021/09/22 07:53:48;;;;;;;6.78;4.72;;;;;;;;;;1046053;27;99748;-60
2021/09/22 07:54:19;;;;;;;5.97;4.32;;;;;;;;;;1044275;27;100661;-59
2021/09/22 07:54:50;;;;;;;6.15;4.85;;;;;;;;;;1046169;27;99484;-60
2021/09/22 07:55:21;;;;;;;7.38;5.35;;;;;;;;;;1044585;27;100436;-59
2021/09/22 07:55:53;;;;;;;13.13;4.80;;;;;;;;;;1045869;27;100021;-60
2021/09/22 07:56:24;;;;;;;11.65;4.90;;;;;;;;;;1044235;27;100441;-59
2021/09/22 07:56:55;;;;;;;7.90;4.72;;;;;;;;;;1046074;27;99813;-60
2021/09/22 07:57:26;;;;;;;6.90;4.78;;;;;;;;;;1044481;27;100486;-60
2021/09/22 07:57:57;;;;;;;9.30;5.07;;;;;;;;;;1046166;27;99824;-60
2021/09/22 07:58:28;;;;;;;8.88;4.20;;;;;;;;;;1044014;27;101350;-60
2021/09/22 07:58:59;;;;;;;8.07;4.88;;;;;;;;;;1045987;27;99839;-60
2021/09/22 07:59:31;;;;;;;9.88;4.80;;;;;;;;;;1044597;27;100822;-60
2021/09/22 08:00:04;;;;;;;5.80;4.45;;;;;;;;;;1046067;27;100157;-60
2021/09/22 08:00:54;;;;;;;7.43;4.88;;;;;;;;;;1044897;27;100705;-60
2021/09/22 08:01:33;;;;;;;7.25;4.82;;;;;;;;;;1045098;27;100059;-60
2021/09/22 08:02:04;;;;;;;6.88;4.32;;;;;;;;;;1044247;27;101614;-59
2021/09/22 08:02:36;;;;;;;7.72;4.65;;;;;;;;;;1045544;27;100108;-59
2021/09/22 08:03:07;;;;;;;11.35;4.30;;;;;;;;;;1044498;27;100497;-60
2021/09/22 08:03:39;;;;;;;8.30;4.53;;;;;;;;;;1045485;27;99907;-60
2021/09/22 08:04:10;;;;;;;8.52;4.47;;;;;;;;;;1044690;27;100449;-60
2021/09/22 08:04:42;;;;;;;6.43;4.18;;;;;;;;;;1045425;27;100091;-60
2021/09/22 08:05:13;;;;;;;8.20;4.25;;;;;;;;;;1044077;27;100905;-59
2021/09/22 08:05:44;;;;;;;10.63;4.75;;;;;;;;;;1045499;27;100099;-60
2021/09/22 08:06:15;;;;;;;9.63;4.38;;;;;;;;;;1040064;28;100455;-60
2021/09/22 08:06:46;;;;;;;12.07;4.15;;;;;;;;;;1041588;27;99898;-60
2021/09/22 08:07:18;;;;;;;6.22;4.50;;;;;;;;;;1044175;27;100934;-59
2021/09/22 08:07:49;;;;;;;10.00;4.47;;;;;;;;;;1041617;27;99905;-60
2021/09/22 08:08:20;;;;;;;6.78;4.28;;;;;;;;;;1044142;27;101626;-60
2021/09/22 08:08:51;;;;;;;7.43;4.32;;;;;;;;;;1045462;27;99950;-60
2021/09/22 08:09:22;;;;;;;6.60;4.50;;;;;;;;;;1044349;27;100708;-60
2021/09/22 08:09:53;;;;;;;6.35;4.45;;;;;;;;;;1045875;27;99747;-60
2021/09/22 08:10:25;;;;;;;13.50;4.57;;;;;;;;;;1044593;27;100229;-59
2021/09/22 08:10:56;;;;;;;12.55;4.65;;;;;;;;;;1036825;28;99951;-59
2021/09/22 08:11:27;;;;;;;9.50;4.43;;;;;;;;;;1035665;28;100523;-59
2021/09/22 08:11:59;;;;;;;5.78;4.18;;;;;;;;;;1037365;28;99950;-59
2021/09/22 08:12:30;;;;;;;7.15;4.32;;;;;;;;;;1036929;27;100537;-59
2021/09/22 08:13:02;;;;;;;7.10;4.85;;;;;;;;;;1045646;27;100092;-59
2021/09/22 08:13:37;;;;;;;11.73;4.85;;;;;;;;;;1043772;27;100863;-59
2021/09/22 08:14:08;;;;;;;6.20;4.88;;;;;;;;;;1044934;27;99865;-59
2021/09/22 08:14:39;;;;;;;8.18;4.65;;;;;;;;;;1039840;28;101462;-59
2021/09/22 08:15:11;;;;;;;7.20;4.97;;;;;;;;;;1042033;27;99841;-59
2021/09/22 08:15:43;;;;;;;8.68;4.45;;;;;;;;;;1044269;27;100514;-59
2021/09/22 08:16:14;;;;;;;9.23;4.82;;;;;;;;;;1045501;27;100220;-59
2021/09/22 08:16:45;;;;;;;8.73;4.63;;;;;;;;;;1035500;28;102310;-59
2021/09/22 08:17:18;;;;;;;6.07;4.25;;;;;;;;;;1036886;28;99953;-60
2021/09/22 08:17:49;;;;;;;6.50;4.78;;;;;;;;;;1035667;28;100627;-59
2021/09/22 08:18:20;;;;;;;10.40;4.85;;;;;;;;;;1034482;28;99878;-59
2021/09/22 08:18:51;;;;;;;7.90;4.38;;;;;;;;;;1040347;27;101351;-59
2021/09/22 08:19:23;;;;;;;7.93;4.53;;;;;;;;;;1045488;27;100233;-59
2021/09/22 08:19:54;;;;;;;7.03;4.38;;;;;;;;;;1036356;28;100700;-59
2021/09/22 08:20:25;;;;;;;7.60;5.00;;;;;;;;;;1041160;28;100023;-59
2021/09/22 08:20:56;;;;;;;8.40;4.90;;;;;;;;;;1040132;28;100360;-58
2021/09/22 08:21:27;;;;;;;7.35;4.30;;;;;;;;;;1041757;27;99282;-59
2021/09/22 08:21:58;;;;;;;9.25;4.93;;;;;;;;;;1044519;27;100714;-60
2021/09/22 08:22:29;;;;;;;9.32;4.50;;;;;;;;;;1046027;27;99843;-59
2021/09/22 08:23:01;;;;;;;7.20;4.65;;;;;;;;;;1044605;27;100213;-58
2021/09/22 08:23:32;;;;;;;8.30;4.65;;;;;;;;;;1045570;27;100158;-59
2021/09/22 08:24:03;;;;;;;7.13;4.82;;;;;;;;;;1044369;27;100627;-59
2021/09/22 08:24:35;;;;;;;5.07;4.38;;;;;;;;;;1045724;27;100086;-59
2021/09/22 08:25:07;;;;;;;7.30;4.97;;;;;;;;;;1040625;27;100450;-59
2021/09/22 08:25:38;;;;;;;7.70;4.95;;;;;;;;;;1045264;27;100007;-59
2021/09/22 08:26:09;;;;;;;6.88;4.57;;;;;;;;;;1044293;27;100461;-59
2021/09/22 08:26:41;;;;;;;7.75;4.93;;;;;;;;;;1045601;27;99886;-60
2021/09/22 08:27:13;;;;;;;8.25;5.18;;;;;;;;;;1044535;27;100609;-59
2021/09/22 08:27:44;;;;;;;8.68;4.82;;;;;;;;;;1045609;27;100168;-58
2021/09/22 08:28:16;;;;;;;8.00;4.95;;;;;;;;;;1044554;27;100182;-59
2021/09/22 08:28:47;;;;;;;10.70;5.28;;;;;;;;;;1045670;27;99987;-59
2021/09/22 08:29:19;;;;;;;5.00;4.32;;;;;;;;;;1044416;27;101309;-59
2021/09/22 08:29:50;;;;;;;5.70;4.45;;;;;;;;;;1045377;27;100200;-58
2021/09/22 08:30:22;;;;;;;5.63;4.55;;;;;;;;;;1043947;27;101109;-57
2021/09/22 08:30:54;;;;;;;7.70;4.68;;;;;;;;;;1045543;27;100193;-58
2021/09/22 08:31:25;;;;;;;8.50;4.90;;;;;;;;;;1044276;27;100846;-57
2021/09/22 08:31:56;;;;;;;10.23;5.25;;;;;;;;;;1045660;27;100831;-58
2021/09/22 08:32:27;;;;;;;9.40;5.05;;;;;;;;;;1044401;27;100389;-57
2021/09/22 08:32:58;;;;;;;10.27;5.30;;;;;;;;;;1046083;27;99719;-57
2021/09/22 08:33:30;;;;;;;11.32;5.05;;;;;;;;;;1044142;27;100890;-58
2021/09/22 08:34:01;;;;;;;7.05;4.85;;;;;;;;;;1040924;28;100236;-58
2021/09/22 08:34:33;;;;;;;9.57;4.97;;;;;;;;;;1040111;28;100461;-58
2021/09/22 08:35:04;;;;;;;9.98;5.07;;;;;;;;;;1037685;28;100148;-58
2021/09/22 08:35:36;;;;;;;10.65;5.00;;;;;;;;;;1040692;27;100535;-58
2021/09/22 08:36:08;;;;;;;9.32;4.65;;;;;;;;;;1044890;27;100304;-58
2021/09/22 08:36:40;;;;;;;7.18;5.05;;;;;;;;;;1044314;27;100577;-59
2021/09/22 08:37:11;;;;;;;7.05;4.88;;;;;;;;;;1045528;27;100020;-60
2021/09/22 08:37:42;;;;;;;8.13;4.72;;;;;;;;;;1044646;27;100222;-58
2021/09/22 08:38:14;;;;;;;11.35;5.07;;;;;;;;;;1045616;27;99938;-57
2021/09/22 08:38:45;;;;;;;6.93;4.30;;;;;;;;;;1044582;27;100501;-58
2021/09/22 08:39:16;;;;;;;6.60;4.32;;;;;;;;;;1045554;27;99923;-58
2021/09/22 08:39:48;;;;;;;7.88;4.80;;;;;;;;;;1044603;27;100530;-58
2021/09/22 08:40:19;;;;;;;5.85;4.13;;;;;;;;;;1045428;27;100417;-58
2021/09/22 08:40:52;;;;;;;9.60;5.10;;;;;;;;;;1044502;27;100802;-58
2021/09/22 08:41:23;;;;;;;7.35;4.90;;;;;;;;;;1045715;27;100039;-58
2021/09/22 08:41:54;;;;;;;6.55;4.22;;;;;;;;;;1044457;27;100508;-58
2021/09/22 08:42:26;;;;;;;9.70;4.50;;;;;;;;;;1045469;27;99956;-58
2021/09/22 08:42:58;;;;;;;7.38;4.70;;;;;;;;;;1044207;27;100226;-58
2021/09/22 08:43:31;;;;;;;6.72;4.40;;;;;;;;;;1045657;27;100007;-58
2021/09/22 08:44:05;;;;;;;8.48;4.60;;;;;;;;;;1044258;27;100429;-58
2021/09/22 08:44:37;;;;;;;6.78;4.43;;;;;;;;;;1049420;27;99871;-58
2021/09/22 08:45:15;;;;;;;7.78;4.70;;;;;;;;;;1048049;27;101485;-58
2021/09/22 08:45:46;;;;;;;8.45;4.55;;;;;;;;;;1049876;27;100273;-58
2021/09/22 08:46:19;;;;;;;5.03;4.20;;;;;;;;;;1046425;27;100195;-58
2021/09/22 08:46:50;;;;;;;10.63;4.32;;;;;;;;;;1045713;27;99847;-57
2021/09/22 08:47:21;;;;;;;7.13;4.80;;;;;;;;;;1044289;27;100865;-57
2021/09/22 08:48:00;;;;;;;11.13;4.70;;;;;;;;;;1045603;27;99856;-57
2021/09/22 08:48:31;;;;;;;5.80;4.15;;;;;;;;;;1039482;27;100720;-58
2021/09/22 08:49:04;;;;;;;8.90;4.75;;;;;;;;;;1045667;27;100086;-58
2021/09/22 08:49:40;;;;;;;8.07;4.75;;;;;;;;;;1045796;27;100572;-57
2021/09/22 08:50:14;;;;;;;7.03;4.82;;;;;;;;;;1050751;27;100006;-58
2021/09/22 08:50:45;;;;;;;8.23;4.22;;;;;;;;;;1049181;27;101460;-57
2021/09/22 08:51:16;;;;;;;6.35;4.40;;;;;;;;;;1045951;27;99972;-58
2021/09/22 08:51:48;;;;;;;6.97;4.65;;;;;;;;;;1044248;27;101389;-57
2021/09/22 08:52:19;;;;;;;4.97;4.15;;;;;;;;;;1045198;27;100049;-58
2021/09/22 08:52:51;;;;;;;5.90;4.40;;;;;;;;;;1044065;27;100535;-57
2021/09/22 08:53:23;;;;;;;8.77;4.57;;;;;;;;;;1045626;27;100187;-58
2021/09/22 08:53:54;;;;;;;6.18;4.45;;;;;;;;;;1043999;27;100333;-60
2021/09/22 08:54:25;;;;;;;6.40;4.40;;;;;;;;;;1045912;27;100041;-58
2021/09/22 08:54:57;;;;;;;6.35;4.10;;;;;;;;;;1043985;27;101396;-59
2021/09/22 08:55:28;;;;;;;7.13;4.53;;;;;;;;;;1045613;27;99835;-58
2021/09/22 08:56:01;;;;;;;20.73;4.50;;;;;;;;;;1044552;27;100402;-59
2021/09/22 08:56:37;;;;;;;11.98;4.50;;;;;;;;;;1045440;27;100049;-58
2021/09/22 08:57:08;;;;;;;5.43;4.22;;;;;;;;;;1039615;28;101581;-58
2021/09/22 08:57:39;;;;;;;14.90;5.15;;;;;;;;;;1036761;28;99934;-59
2021/09/22 08:58:11;;;;;;;11.80;4.47;;;;;;;;;;1036919;28;100913;-59
2021/09/22 08:58:42;;;;;;;6.82;4.22;;;;;;;;;;1041499;27;100063;-59
2021/09/22 08:59:15;;;;;;;9.25;4.30;;;;;;;;;;1035900;28;100641;-59
2021/09/22 08:59:46;;;;;;;12.27;4.78;;;;;;;;;;1045392;27;99298;-58
2021/09/22 09:00:17;;;;;;;9.73;4.60;;;;;;;;;;1043955;27;100453;-59
2021/09/22 09:00:49;;;;;;;14.32;5.38;;;;;;;;;;1045880;27;99905;-59
2021/09/22 09:01:24;;;;;;;7.85;4.47;;;;;;;;;;1047780;27;100421;-59
2021/09/22 09:02:05;;;;;;;8.20;3.80;;;;;;;;;;1045853;27;100060;-58
2021/09/22 09:02:43;;;;;;;7.40;3.97;;;;;;;;;;1044200;27;101540;-59
2021/09/22 09:03:34;;;;;;;6.53;4.28;;;;;;;;;;1045658;27;99846;-60
2021/09/22 09:04:19;;;;;;;7.00;4.60;;;;;;;;;;1044254;27;101815;-58
2021/09/22 09:05:12;;;;;;;9.02;4.80;;;;;;;;;;1045725;27;99835;-59
2021/09/22 09:05:43;;;;;;;7.50;4.28;;;;;;;;;;1044347;27;100644;-59
2021/09/22 09:06:21;;;;;;;6.80;4.35;;;;;;;;;;1045483;27;100096;-59
2021/09/22 09:06:56;;;;;;;17.75;4.57;;;;;;;;;;1044317;27;100467;-58
2021/09/22 09:07:31;;;;;;;7.38;4.10;;;;;;;;;;1045001;27;100047;-59
2021/09/22 09:08:03;;;;;;;9.15;4.70;;;;;;;;;;1044029;27;100694;-59
2021/09/22 09:08:39;;;;;;;7.97;4.43;;;;;;;;;;1045443;27;99877;-54
2021/09/22 09:09:10;;;;;;;7.55;4.18;;;;;;;;;;1044093;27;100527;-57
2021/09/22 09:09:44;;;;;;;13.10;5.20;;;;;;;;;;1045132;27;100071;-56